Time;durP1;ratioP1;P1;durP2;ratioP2;P2;SDS_P1;SDS_P2;PMS_P1;PMS_P2;Temp;Humidity;BMP_temperature;BMP_pressure;BME280_temperature;BME280_humidity;BME280_pressure;Samples;Min_cycle;Max_cycle;Signal;HPM_P1;HPM_P2
2022/10/26 00:02:20;;;;;;;3.22;2.10;;;14.30;99.90;;;;;;936280;149;27440;-78
2022/10/26 00:04:47;;;;;;;3.57;2.27;;;14.30;99.90;;;;;;934363;149;27339;-78
2022/10/26 00:07:13;;;;;;;2.53;2.17;;;14.30;99.90;;;;;;935354;149;27370;-76
2022/10/26 00:09:40;;;;;;;4.97;2.40;;;14.40;99.90;;;;;;935464;149;27560;-76
2022/10/26 00:12:07;;;;;;;4.47;2.52;;;14.40;99.90;;;;;;935028;149;27301;-76
2022/10/26 00:14:33;;;;;;;4.12;2.37;;;14.40;99.90;;;;;;934796;149;27921;-77
2022/10/26 00:17:00;;;;;;;3.17;2.22;;;14.40;99.90;;;;;;935357;149;27357;-78
2022/10/26 00:19:26;;;;;;;5.72;2.40;;;14.50;99.90;;;;;;935113;149;27352;-76
2022/10/26 00:21:53;;;;;;;3.90;3.40;;;14.50;99.90;;;;;;936071;149;27370;-77
2022/10/26 00:24:20;;;;;;;4.27;3.27;;;14.50;99.90;;;;;;922086;151;27403;-76
2022/10/26 00:26:46;;;;;;;5.03;3.13;;;14.50;99.90;;;;;;937251;149;27352;-77
2022/10/26 00:29:13;;;;;;;5.62;3.85;;;14.50;99.90;;;;;;934084;149;27354;-78
2022/10/26 00:31:39;;;;;;;6.20;3.80;;;14.50;99.90;;;;;;919479;154;27369;-77
2022/10/26 00:34:06;;;;;;;6.12;3.85;;;14.50;99.90;;;;;;919181;151;27984;-76
2022/10/26 00:36:33;;;;;;;5.78;4.40;;;14.50;99.90;;;;;;933535;151;27320;-76
2022/10/26 00:38:59;;;;;;;7.17;3.90;;;14.50;99.90;;;;;;936218;149;27362;-76
2022/10/26 00:41:26;;;;;;;4.03;3.62;;;14.50;99.90;;;;;;936368;149;27310;-76
2022/10/26 00:43:52;;;;;;;4.78;3.75;;;14.50;99.90;;;;;;913818;154;27306;-78
2022/10/26 00:46:22;;;;;;;9.98;4.60;;;14.50;99.90;;;;;;915460;154;27469;-77
2022/10/26 00:48:48;;;;;;;4.75;3.75;;;14.50;99.90;;;;;;914311;154;27319;-76
2022/10/26 00:51:33;;;;;;;5.75;3.75;;;14.50;99.90;;;;;;914646;152;27898;-76
2022/10/26 00:53:56;;;;;;;5.65;3.80;;;14.50;99.90;;;;;;915142;152;27342;-76
2022/10/26 00:56:23;;;;;;;4.85;3.80;;;14.40;99.90;;;;;;917001;152;27457;-78
2022/10/26 00:58:50;;;;;;;6.83;3.62;;;14.40;99.90;;;;;;916700;154;27374;-79
2022/10/26 01:01:16;;;;;;;3.95;3.35;;;14.40;99.90;;;;;;914376;154;27332;-76
2022/10/26 01:03:43;;;;;;;3.85;3.20;;;14.40;99.90;;;;;;915642;154;27367;-76
2022/10/26 01:06:09;;;;;;;4.40;3.30;;;14.40;99.90;;;;;;915726;154;27335;-78
2022/10/26 01:08:36;;;;;;;3.98;2.72;;;14.30;99.90;;;;;;916998;154;27342;-78
2022/10/26 01:11:02;;;;;;;3.20;2.90;;;14.40;99.90;;;;;;916493;154;27435;-76
2022/10/26 01:13:29;;;;;;;4.53;2.95;;;14.30;99.90;;;;;;917621;155;27404;-77
2022/10/26 01:15:58;;;;;;;4.40;3.10;;;14.30;99.90;;;;;;915204;154;27379;-76
2022/10/26 01:18:40;;;;;;;4.57;2.70;;;14.40;99.90;;;;;;917493;152;27425;-77
2022/10/26 01:21:18;;;;;;;3.63;2.73;;;14.40;99.90;;;;;;913058;154;27383;-75
2022/10/26 01:24:03;;;;;;;4.17;2.85;;;14.40;99.90;;;;;;917177;154;27464;-76
2022/10/26 01:26:32;;;;;;;5.70;2.83;;;14.40;99.90;;;;;;916894;154;27465;-76
2022/10/26 01:29:23;;;;;;;3.47;2.92;;;14.40;99.90;;;;;;914598;152;27331;-76
2022/10/26 01:31:50;;;;;;;12.63;3.30;;;14.40;99.90;;;;;;915211;154;27367;-77
2022/10/26 01:34:32;;;;;;;3.90;2.80;;;14.40;99.90;;;;;;916568;151;27342;-76
2022/10/26 01:36:58;;;;;;;3.70;2.70;;;14.40;99.90;;;;;;917587;151;27382;-76
2022/10/26 01:39:28;;;;;;;5.70;2.90;;;14.40;99.90;;;;;;916458;151;27355;-76
2022/10/26 01:41:54;;;;;;;4.47;3.15;;;14.40;99.90;;;;;;916607;151;27314;-76
2022/10/26 01:44:33;;;;;;;7.90;4.00;;;14.40;99.90;;;;;;916316;151;27404;-76
2022/10/26 01:46:59;;;;;;;4.87;2.37;;;14.40;99.90;;;;;;916957;151;27325;-76
2022/10/26 01:49:26;;;;;;;7.55;3.10;;;14.40;99.90;;;;;;915906;151;27376;-77
2022/10/26 01:51:53;;;;;;;5.30;3.30;;;14.50;99.90;;;;;;916856;151;27497;-76
2022/10/26 01:54:19;;;;;;;3.57;2.43;;;14.50;99.90;;;;;;915978;151;27343;-75
2022/10/26 01:56:48;;;;;;;4.47;2.63;;;14.50;99.90;;;;;;917823;151;27387;-75
2022/10/26 01:59:27;;;;;;;2.70;2.30;;;14.50;99.90;;;;;;916430;151;27352;-77
2022/10/26 02:02:08;;;;;;;3.58;2.20;;;14.50;99.90;;;;;;915392;151;27363;-75
2022/10/26 02:04:53;;;;;;;3.92;2.42;;;14.50;99.90;;;;;;921412;152;27427;-76
2022/10/26 02:07:57;;;;;;;2.40;2.12;;;14.50;99.90;;;;;;914671;151;27360;-76
2022/10/26 02:10:41;;;;;;;4.45;2.15;;;14.60;99.90;;;;;;916094;151;27290;-76
2022/10/26 02:13:23;;;;;;;3.60;2.30;;;14.60;99.90;;;;;;915334;151;27919;-76
2022/10/26 02:15:52;;;;;;;3.47;1.95;;;14.60;99.90;;;;;;914912;151;27391;-78
2022/10/26 02:18:27;;;;;;;5.90;2.20;;;14.60;99.90;;;;;;916964;151;27387;-76
2022/10/26 02:20:54;;;;;;;2.98;2.25;;;14.60;99.90;;;;;;916065;151;27356;-76
2022/10/26 02:23:20;;;;;;;5.12;1.90;;;14.60;99.90;;;;;;916700;151;27415;-76
2022/10/26 02:25:47;;;;;;;3.05;2.20;;;14.60;99.90;;;;;;918100;151;27291;-76
2022/10/26 02:28:14;;;;;;;2.10;1.55;;;14.70;99.90;;;;;;916002;151;27392;-75
2022/10/26 02:30:40;;;;;;;3.83;1.90;;;14.70;99.90;;;;;;915384;151;27469;-76
2022/10/26 02:33:07;;;;;;;3.17;1.80;;;14.80;99.90;;;;;;917492;151;27424;-76
2022/10/26 02:35:33;;;;;;;3.70;1.98;;;14.80;99.90;;;;;;922116;150;28013;-75
2022/10/26 02:38:00;;;;;;;4.22;2.15;;;14.80;99.90;;;;;;948283;147;27319;-76
2022/10/26 02:40:26;;;;;;;4.08;1.60;;;14.90;99.90;;;;;;946989;147;27446;-76
2022/10/26 02:42:53;;;;;;;2.55;1.87;;;14.90;99.90;;;;;;947233;147;27431;-78
2022/10/26 02:45:23;;;;;;;3.08;1.80;;;14.90;99.90;;;;;;947615;147;27853;-78
2022/10/26 02:47:49;;;;;;;2.30;1.60;;;15.00;99.90;;;;;;947132;147;27341;-78
2022/10/26 02:50:17;;;;;;;1.82;1.72;;;15.00;99.90;;;;;;946594;147;27420;-78
2022/10/26 02:52:54;;;;;;;2.35;1.77;;;15.10;99.90;;;;;;948927;147;27332;-78
2022/10/26 02:55:24;;;;;;;3.37;1.77;;;15.10;99.90;;;;;;930249;147;27661;-78
2022/10/26 02:57:59;;;;;;;4.42;1.98;;;15.10;99.90;;;;;;948692;147;27353;-78
2022/10/26 03:00:25;;;;;;;3.17;1.92;;;15.20;99.90;;;;;;947807;147;27363;-78
2022/10/26 03:02:52;;;;;;;7.70;1.90;;;15.20;99.90;;;;;;950571;147;27303;-78
2022/10/26 03:05:25;;;;;;;5.42;2.08;;;15.20;99.90;;;;;;947170;147;27377;-78
2022/10/26 03:07:51;;;;;;;2.85;2.27;;;15.20;99.90;;;;;;940960;149;27446;-79
2022/10/26 03:10:18;;;;;;;2.40;1.77;;;15.30;99.90;;;;;;947078;147;27468;-78
2022/10/26 03:12:45;;;;;;;2.47;1.90;;;15.30;99.90;;;;;;946116;147;27337;-78
2022/10/26 03:15:11;;;;;;;5.50;1.67;;;15.30;99.90;;;;;;948519;147;27291;-78
2022/10/26 03:17:38;;;;;;;3.62;1.72;;;15.30;99.90;;;;;;946505;147;27338;-79
2022/10/26 03:20:04;;;;;;;4.05;1.85;;;15.30;99.90;;;;;;949056;147;27358;-78
2022/10/26 03:22:31;;;;;;;3.77;2.03;;;15.30;99.90;;;;;;946832;147;28230;-78
2022/10/26 03:24:58;;;;;;;1.73;1.63;;;15.30;99.90;;;;;;946271;147;27823;-78
2022/10/26 03:27:25;;;;;;;3.83;1.80;;;15.30;99.90;;;;;;947367;147;27418;-78
2022/10/26 03:29:51;;;;;;;2.95;1.87;;;15.30;99.90;;;;;;948785;147;27345;-78
2022/10/26 03:32:17;;;;;;;2.27;1.45;;;15.30;99.90;;;;;;947213;147;27380;-78
2022/10/26 03:34:44;;;;;;;2.02;1.82;;;15.30;99.90;;;;;;951516;147;27439;-78
2022/10/26 03:37:11;;;;;;;3.00;1.85;;;15.30;99.90;;;;;;922722;151;27417;-78
2022/10/26 03:39:37;;;;;;;5.90;2.02;;;15.30;99.90;;;;;;904085;154;27462;-79
2022/10/26 03:42:04;;;;;;;4.17;2.00;;;15.30;99.90;;;;;;904089;154;27376;-78
2022/10/26 03:44:30;;;;;;;4.20;2.10;;;15.30;99.90;;;;;;903256;154;27941;-79
2022/10/26 03:46:57;;;;;;;2.75;2.10;;;15.30;99.90;;;;;;903779;154;27406;-79
2022/10/26 03:49:23;;;;;;;3.72;2.00;;;15.30;99.90;;;;;;903946;154;27383;-78
2022/10/26 03:51:50;;;;;;;2.37;2.17;;;15.30;99.90;;;;;;905327;154;27375;-78
2022/10/26 03:54:17;;;;;;;1.98;1.87;;;15.30;99.90;;;;;;903443;154;27854;-78
2022/10/26 03:56:43;;;;;;;3.70;1.77;;;15.30;99.90;;;;;;904602;154;27408;-78
2022/10/26 03:59:10;;;;;;;2.65;1.87;;;15.30;99.90;;;;;;904493;154;27430;-78
2022/10/26 04:01:37;;;;;;;4.10;2.00;;;15.30;99.90;;;;;;915462;152;27798;-78
2022/10/26 04:04:03;;;;;;;6.00;2.17;;;15.30;99.90;;;;;;922935;150;27365;-78
2022/10/26 04:06:30;;;;;;;2.65;1.82;;;15.30;99.90;;;;;;922786;150;27393;-78
2022/10/26 04:09:01;;;;;;;3.45;1.85;;;15.30;99.90;;;;;;915938;152;27375;-78
2022/10/26 04:11:23;;;;;;;3.17;1.70;;;15.30;99.90;;;;;;922339;151;27439;-78
2022/10/26 04:13:49;;;;;;;2.12;1.85;;;15.30;99.90;;;;;;924967;150;27381;-78
2022/10/26 04:16:16;;;;;;;7.62;2.17;;;15.30;99.90;;;;;;923714;150;27438;-78
2022/10/26 04:18:43;;;;;;;3.10;1.80;;;15.30;99.90;;;;;;923105;151;27301;-78
2022/10/26 04:21:09;;;;;;;2.55;1.98;;;15.30;99.90;;;;;;924581;150;27378;-78
2022/10/26 04:23:36;;;;;;;6.42;2.00;;;15.30;99.90;;;;;;924142;150;27970;-78
2022/10/26 04:26:02;;;;;;;2.52;1.90;;;15.30;99.90;;;;;;921706;150;27767;-78
2022/10/26 04:28:29;;;;;;;3.10;2.42;;;15.20;99.90;;;;;;925215;151;27366;-79
2022/10/26 04:30:55;;;;;;;5.08;2.08;;;15.20;99.90;;;;;;921585;151;27372;-79
2022/10/26 04:33:22;;;;;;;3.00;1.72;;;15.20;99.90;;;;;;923088;151;27372;-79
2022/10/26 04:35:49;;;;;;;4.08;2.20;;;15.20;99.90;;;;;;923291;151;27460;-78
2022/10/26 04:38:15;;;;;;;2.92;1.75;;;15.20;99.90;;;;;;927275;150;27451;-78
2022/10/26 04:40:42;;;;;;;2.05;1.95;;;15.20;99.90;;;;;;928260;150;27502;-78
2022/10/26 04:43:08;;;;;;;2.58;1.90;;;15.20;99.90;;;;;;926016;150;27329;-78
2022/10/26 04:45:35;;;;;;;2.77;1.98;;;15.10;99.90;;;;;;927894;152;27335;-78
2022/10/26 04:48:05;;;;;;;2.85;1.82;;;15.10;99.90;;;;;;928125;150;27453;-78
2022/10/26 04:50:31;;;;;;;2.45;1.80;;;15.10;99.90;;;;;;927720;150;27470;-78
2022/10/26 04:52:58;;;;;;;4.85;2.22;;;15.10;99.90;;;;;;928866;150;27387;-78
2022/10/26 04:55:24;;;;;;;2.35;2.05;;;15.10;99.90;;;;;;929154;150;27749;-78
2022/10/26 04:57:51;;;;;;;1.85;1.75;;;15.10;99.90;;;;;;927009;152;27344;-78
2022/10/26 05:00:18;;;;;;;3.17;1.65;;;15.10;99.90;;;;;;928746;150;27325;-78
2022/10/26 05:02:44;;;;;;;4.28;2.22;;;15.10;99.90;;;;;;927780;152;27440;-78
2022/10/26 05:05:11;;;;;;;3.17;1.60;;;15.10;99.90;;;;;;929487;152;27344;-78
2022/10/26 05:07:37;;;;;;;2.02;1.82;;;15.10;99.90;;;;;;927772;150;27342;-78
2022/10/26 05:10:04;;;;;;;2.50;1.90;;;15.10;99.90;;;;;;928264;152;27317;-78
2022/10/26 05:12:30;;;;;;;2.62;2.30;;;15.10;99.90;;;;;;930627;152;27414;-78
2022/10/26 05:14:58;;;;;;;3.37;2.00;;;15.00;99.90;;;;;;928926;150;27360;-78
2022/10/26 05:17:27;;;;;;;7.00;3.02;;;15.00;99.90;;;;;;927452;150;28458;-78
2022/10/26 05:19:57;;;;;;;4.97;2.57;;;15.00;99.90;;;;;;927656;152;27459;-78
2022/10/26 05:22:22;;;;;;;2.60;2.10;;;15.00;99.90;;;;;;930228;150;27436;-78
2022/10/26 05:24:49;;;;;;;5.17;2.20;;;15.00;99.90;;;;;;928311;152;27445;-78
2022/10/26 05:27:15;;;;;;;3.08;2.00;;;15.00;99.90;;;;;;927861;152;27489;-78
2022/10/26 05:29:42;;;;;;;2.87;2.20;;;14.90;99.90;;;;;;928734;150;27449;-79
2022/10/26 05:32:09;;;;;;;3.62;2.02;;;14.90;99.90;;;;;;928155;150;27354;-78
2022/10/26 05:34:35;;;;;;;3.30;2.02;;;14.90;99.90;;;;;;927778;152;27341;-78
2022/10/26 05:37:02;;;;;;;2.33;2.12;;;14.80;99.90;;;;;;930071;150;27476;-78
2022/10/26 05:39:28;;;;;;;7.65;2.30;;;14.80;99.90;;;;;;930401;152;27393;-78
2022/10/26 05:41:55;;;;;;;3.23;1.90;;;14.80;99.90;;;;;;927928;152;27361;-78
2022/10/26 05:44:22;;;;;;;2.80;2.10;;;14.80;99.90;;;;;;929571;150;27388;-78
2022/10/26 05:46:48;;;;;;;3.43;2.00;;;14.80;99.90;;;;;;928565;150;27858;-79
2022/10/26 05:49:15;;;;;;;4.03;2.25;;;14.80;99.90;;;;;;930318;150;27616;-79
2022/10/26 05:51:41;;;;;;;1.90;1.70;;;14.80;99.90;;;;;;934929;148;28216;-79
2022/10/26 05:54:08;;;;;;;5.10;2.45;;;14.90;99.90;;;;;;936106;149;27333;-79
2022/10/26 05:56:35;;;;;;;4.60;2.05;;;14.90;99.90;;;;;;936111;151;27324;-79
2022/10/26 05:59:01;;;;;;;2.85;2.55;;;14.90;99.90;;;;;;935379;148;27322;-78
2022/10/26 06:01:39;;;;;;;2.45;2.25;;;14.90;99.90;;;;;;934095;151;27425;-79
2022/10/26 06:04:06;;;;;;;4.35;2.12;;;15.00;99.90;;;;;;935627;149;27330;-78
2022/10/26 06:06:32;;;;;;;1.70;1.60;;;15.00;99.90;;;;;;933053;151;27326;-78
2022/10/26 06:08:59;;;;;;;2.00;1.90;;;15.00;99.90;;;;;;935344;151;27358;-80
2022/10/26 06:11:26;;;;;;;3.30;2.40;;;15.00;99.90;;;;;;936826;148;27335;-77
2022/10/26 06:13:53;;;;;;;4.75;2.40;;;15.00;99.90;;;;;;935121;148;27356;-78
2022/10/26 06:16:27;;;;;;;4.78;1.82;;;15.00;99.90;;;;;;933630;151;28273;-78
2022/10/26 06:18:57;;;;;;;2.72;1.80;;;15.00;99.90;;;;;;936283;148;27327;-78
2022/10/26 06:21:35;;;;;;;2.15;1.75;;;15.00;99.90;;;;;;936263;151;27293;-78
2022/10/26 06:24:04;;;;;;;2.30;2.10;;;15.00;99.90;;;;;;934942;151;27389;-79
2022/10/26 06:26:34;;;;;;;2.75;1.95;;;15.10;99.90;;;;;;935604;151;27353;-78
2022/10/26 06:29:18;;;;;;;5.28;2.12;;;15.10;99.90;;;;;;935069;149;27369;-78
2022/10/26 06:31:45;;;;;;;3.72;1.85;;;15.20;99.90;;;;;;934671;148;27325;-79
2022/10/26 06:34:12;;;;;;;2.30;1.87;;;15.20;99.90;;;;;;934530;151;27393;-78
2022/10/26 06:36:38;;;;;;;4.12;2.15;;;15.30;99.90;;;;;;934088;151;27390;-78
2022/10/26 06:39:07;;;;;;;2.12;1.92;;;15.30;99.90;;;;;;934704;151;27403;-78
2022/10/26 06:41:34;;;;;;;3.58;2.05;;;15.40;99.90;;;;;;933259;149;27327;-78
2022/10/26 06:44:03;;;;;;;2.00;1.77;;;15.40;99.90;;;;;;933434;151;27478;-78
2022/10/26 06:46:30;;;;;;;3.98;1.92;;;15.40;99.90;;;;;;936736;148;27371;-79
2022/10/26 06:49:00;;;;;;;2.20;1.90;;;15.50;99.90;;;;;;935404;149;27452;-78
2022/10/26 06:51:26;;;;;;;4.22;2.08;;;15.50;99.90;;;;;;935095;151;27387;-78
2022/10/26 06:54:02;;;;;;;3.27;2.10;;;15.60;99.90;;;;;;937148;149;27298;-78
2022/10/26 06:56:28;;;;;;;3.15;2.17;;;15.60;99.90;;;;;;935941;151;27398;-78
2022/10/26 06:58:55;;;;;;;4.55;2.05;;;15.60;99.90;;;;;;939710;148;27444;-78
2022/10/26 07:01:21;;;;;;;4.25;2.12;;;15.70;99.90;;;;;;935289;151;27354;-78
2022/10/26 07:03:48;;;;;;;2.42;2.00;;;15.70;99.90;;;;;;936218;148;27353;-78
2022/10/26 07:06:14;;;;;;;3.40;1.85;;;15.70;99.90;;;;;;935521;151;27400;-78
2022/10/26 07:08:41;;;;;;;2.27;2.08;;;15.80;99.90;;;;;;936158;149;27407;-78
2022/10/26 07:11:08;;;;;;;3.95;2.00;;;15.80;99.90;;;;;;933661;151;27362;-78
2022/10/26 07:13:34;;;;;;;3.85;2.50;;;15.80;99.90;;;;;;921385;151;27481;-78
2022/10/26 07:16:01;;;;;;;3.47;2.00;;;15.90;99.90;;;;;;934424;149;27290;-78
2022/10/26 07:18:27;;;;;;;3.20;2.02;;;15.90;99.90;;;;;;934135;151;27331;-78
2022/10/26 07:20:54;;;;;;;3.90;2.20;;;16.00;99.90;;;;;;936625;149;27353;-78
2022/10/26 07:23:22;;;;;;;4.15;2.00;;;16.00;99.90;;;;;;937485;149;27341;-78
2022/10/26 07:25:47;;;;;;;4.58;2.20;;;16.10;99.90;;;;;;936234;149;27438;-79
2022/10/26 07:28:14;;;;;;;2.65;2.25;;;16.10;99.90;;;;;;935298;149;27315;-78
2022/10/26 07:30:40;;;;;;;2.80;2.02;;;16.20;99.90;;;;;;935585;149;27492;-78
2022/10/26 07:33:07;;;;;;;4.00;2.50;;;16.20;99.90;;;;;;936055;151;27408;-78
2022/10/26 07:35:34;;;;;;;2.62;2.00;;;16.30;99.90;;;;;;935026;148;27288;-77
2022/10/26 07:38:00;;;;;;;3.35;2.25;;;16.30;99.90;;;;;;934776;145;27727;-79
2022/10/26 07:40:27;;;;;;;2.25;2.05;;;16.40;99.90;;;;;;933096;148;27302;-78
2022/10/26 07:42:53;;;;;;;5.22;2.02;;;16.40;99.90;;;;;;933945;148;27322;-78
2022/10/26 07:45:20;;;;;;;4.55;2.80;;;16.50;99.90;;;;;;935326;148;27388;-78
2022/10/26 07:47:46;;;;;;;5.60;2.30;;;16.50;99.90;;;;;;935674;148;27672;-78
2022/10/26 07:50:13;;;;;;;4.03;2.20;;;16.60;99.90;;;;;;935299;148;27354;-79
2022/10/26 07:52:40;;;;;;;4.70;2.00;;;16.60;99.90;;;;;;932819;148;27935;-78
2022/10/26 07:55:06;;;;;;;2.25;1.82;;;16.60;99.90;;;;;;934231;148;27386;-78
2022/10/26 07:57:33;;;;;;;2.15;1.80;;;16.70;99.90;;;;;;933660;148;27386;-79
2022/10/26 08:00:00;;;;;;;2.85;2.17;;;16.70;99.90;;;;;;934028;148;27321;-79
2022/10/26 08:02:26;;;;;;;8.58;2.40;;;16.80;99.90;;;;;;932657;148;27292;-80
2022/10/26 08:04:53;;;;;;;5.33;2.47;;;16.80;99.90;;;;;;936359;148;27362;-80
2022/10/26 08:07:20;;;;;;;3.15;2.30;;;16.90;99.90;;;;;;935750;148;27475;-80
2022/10/26 08:09:46;;;;;;;3.22;2.17;;;16.90;99.90;;;;;;935161;148;27309;-79
2022/10/26 08:12:15;;;;;;;2.50;1.98;;;16.90;99.90;;;;;;933523;148;27295;-79
2022/10/26 08:14:39;;;;;;;2.77;2.42;;;17.00;99.90;;;;;;934882;148;27341;-78
2022/10/26 08:17:06;;;;;;;2.62;2.02;;;17.00;99.90;;;;;;935095;148;27329;-80
2022/10/26 08:19:32;;;;;;;2.27;2.00;;;17.10;99.90;;;;;;936112;148;28318;-80
2022/10/26 08:21:59;;;;;;;4.83;3.05;;;17.10;99.90;;;;;;935010;148;27333;-79
2022/10/26 08:24:25;;;;;;;2.75;2.10;;;17.20;99.90;;;;;;921363;150;27456;-80
2022/10/26 08:26:52;;;;;;;4.42;2.40;;;17.20;99.90;;;;;;932687;148;27412;-80
2022/10/26 08:29:19;;;;;;;4.53;2.17;;;17.30;99.90;;;;;;934729;148;27474;-79
2022/10/26 08:31:45;;;;;;;3.20;2.17;;;17.40;99.90;;;;;;933027;148;28067;-80
2022/10/26 08:34:12;;;;;;;4.47;2.55;;;17.40;99.90;;;;;;934877;148;28095;-79
2022/10/26 08:36:38;;;;;;;6.08;2.37;;;17.50;99.90;;;;;;935287;148;27343;-80
2022/10/26 08:39:05;;;;;;;4.95;1.92;;;17.60;99.90;;;;;;939489;146;27307;-79
2022/10/26 08:41:38;;;;;;;2.87;2.02;;;17.70;99.90;;;;;;951138;146;27336;-79
2022/10/26 08:44:04;;;;;;;3.47;1.90;;;17.70;99.90;;;;;;951958;146;27410;-79
2022/10/26 08:46:34;;;;;;;2.67;2.02;;;17.90;99.90;;;;;;949619;146;27350;-80
2022/10/26 08:49:00;;;;;;;2.98;1.82;;;17.90;99.90;;;;;;952035;146;27311;-80
2022/10/26 08:51:27;;;;;;;2.17;1.98;;;18.10;99.90;;;;;;952190;146;27307;-80
2022/10/26 08:54:05;;;;;;;2.80;1.55;;;18.10;99.90;;;;;;951468;146;27332;-79
2022/10/26 08:56:32;;;;;;;4.28;2.27;;;18.20;99.90;;;;;;950752;146;27490;-80
2022/10/26 08:58:58;;;;;;;1.75;1.65;;;18.30;99.90;;;;;;953933;146;27324;-80
2022/10/26 09:01:25;;;;;;;2.72;2.02;;;18.50;99.90;;;;;;953539;146;27430;-81
2022/10/26 09:03:51;;;;;;;4.17;2.00;;;18.50;99.90;;;;;;952139;146;27328;-80
2022/10/26 09:06:24;;;;;;;8.08;2.92;;;18.70;99.90;;;;;;954598;146;27716;-80
2022/10/26 09:08:59;;;;;;;2.92;2.42;;;18.70;99.90;;;;;;950454;146;27399;-81
2022/10/26 09:11:32;;;;;;;3.02;2.10;;;18.90;99.90;;;;;;950264;146;27429;-80
2022/10/26 09:13:58;;;;;;;3.42;2.02;;;18.90;99.90;;;;;;950922;146;27310;-80
2022/10/26 09:16:28;;;;;;;2.10;1.90;;;19.10;99.90;;;;;;949174;146;27368;-79
2022/10/26 09:19:18;;;;;;;2.75;1.55;;;19.20;99.90;;;;;;953945;146;27488;-81
2022/10/26 09:21:56;;;;;;;2.67;1.95;;;19.30;99.60;;;;;;954226;146;27356;-79
2022/10/26 09:24:32;;;;;;;2.00;1.80;;;19.50;99.00;;;;;;952338;146;27310;-80
2022/10/26 09:26:58;;;;;;;3.80;1.70;;;19.60;98.40;;;;;;953335;146;27457;-79
2022/10/26 09:29:25;;;;;;;2.10;1.65;;;19.60;98.20;;;;;;951815;146;27364;-80
2022/10/26 09:31:51;;;;;;;2.80;1.92;;;19.70;97.90;;;;;;952020;146;27570;-80
2022/10/26 09:34:18;;;;;;;5.55;2.67;;;19.80;97.90;;;;;;940346;150;27696;-80
2022/10/26 09:36:45;;;;;;;2.10;1.70;;;19.90;97.80;;;;;;941274;150;27416;-81
2022/10/26 09:39:26;;;;;;;1.82;1.60;;;20.10;97.90;;;;;;940402;150;27258;-79
2022/10/26 09:41:53;;;;;;;1.92;1.72;;;20.20;97.80;;;;;;921236;154;27463;-80
2022/10/26 09:44:26;;;;;;;2.10;1.65;;;20.40;97.90;;;;;;938633;150;27548;-80
2022/10/26 09:47:01;;;;;;;2.08;1.42;;;20.60;97.50;;;;;;937830;150;27320;-80
2022/10/26 09:49:40;;;;;;;5.12;1.57;;;20.80;97.20;;;;;;938313;150;27320;-80
2022/10/26 09:52:06;;;;;;;2.83;1.72;;;20.90;96.50;;;;;;940510;148;27327;-80
2022/10/26 09:54:33;;;;;;;2.35;1.40;;;21.00;95.60;;;;;;939096;148;27761;-80
2022/10/26 09:57:01;;;;;;;1.50;1.40;;;21.20;95.20;;;;;;939375;148;27304;-80
2022/10/26 09:59:26;;;;;;;3.05;1.90;;;21.30;94.90;;;;;;937320;148;27294;-80
2022/10/26 10:01:52;;;;;;;1.70;1.60;;;21.50;94.60;;;;;;939695;150;27424;-79
2022/10/26 10:04:21;;;;;;;1.40;1.30;;;21.60;94.60;;;;;;938508;151;27407;-79
2022/10/26 10:06:48;;;;;;;2.05;1.47;;;21.80;94.30;;;;;;938903;151;27505;-80
2022/10/26 10:09:20;;;;;;;1.90;1.35;;;21.90;93.70;;;;;;941055;148;27413;-80
2022/10/26 10:12:02;;;;;;;1.92;1.45;;;22.00;93.00;;;;;;937757;148;27347;-79
2022/10/26 10:14:28;;;;;;;1.50;1.27;;;22.20;92.80;;;;;;939102;148;27358;-79
2022/10/26 10:16:55;;;;;;;2.08;1.30;;;22.30;92.60;;;;;;939887;148;27447;-79
2022/10/26 10:19:22;;;;;;;1.22;1.20;;;22.50;92.00;;;;;;937840;150;27349;-80
2022/10/26 10:21:48;;;;;;;1.52;1.30;;;22.60;91.40;;;;;;935855;150;27352;-80
2022/10/26 10:24:26;;;;;;;2.45;1.47;;;22.70;90.70;;;;;;939381;150;27403;-80
2022/10/26 10:26:59;;;;;;;2.42;1.70;;;22.80;90.00;;;;;;936818;150;27323;-78
2022/10/26 10:29:25;;;;;;;1.47;1.37;;;22.80;89.40;;;;;;938719;148;27378;-79
2022/10/26 10:31:55;;;;;;;2.00;1.20;;;22.90;88.70;;;;;;939983;148;27312;-78
2022/10/26 10:34:21;;;;;;;2.87;1.30;;;22.90;87.90;;;;;;939874;150;27414;-79
2022/10/26 10:36:48;;;;;;;2.72;1.30;;;22.90;87.40;;;;;;940066;150;27429;-80
2022/10/26 10:39:23;;;;;;;1.95;1.85;;;22.90;87.50;;;;;;939710;150;27311;-78
2022/10/26 10:41:50;;;;;;;3.42;1.60;;;22.90;87.70;;;;;;935153;151;27384;-79
2022/10/26 10:44:29;;;;;;;1.40;1.27;;;23.00;88.50;;;;;;938971;150;27421;-80
2022/10/26 10:47:04;;;;;;;2.15;1.40;;;23.00;88.80;;;;;;920183;154;27409;-79
2022/10/26 10:49:31;;;;;;;2.02;1.50;;;23.10;88.00;;;;;;938271;148;27320;-80
2022/10/26 10:51:57;;;;;;;1.55;1.45;;;23.20;88.30;;;;;;937168;151;27447;-78
2022/10/26 10:54:30;;;;;;;1.50;1.40;;;23.30;87.40;;;;;;938409;151;27373;-80
2022/10/26 10:56:57;;;;;;;2.60;2.00;;;23.30;87.00;;;;;;940284;151;27325;-79
2022/10/26 10:59:39;;;;;;;1.92;1.70;;;23.30;86.70;;;;;;937243;151;27278;-79
2022/10/26 11:02:05;;;;;;;2.00;1.60;;;23.40;86.60;;;;;;936155;151;27748;-79
2022/10/26 11:04:50;;;;;;;1.65;1.52;;;23.50;86.60;;;;;;923704;154;27316;-79
2022/10/26 11:07:17;;;;;;;1.50;1.40;;;23.60;86.50;;;;;;923277;154;27343;-78
2022/10/26 11:09:43;;;;;;;2.15;1.40;;;23.70;86.10;;;;;;926312;150;27381;-78
2022/10/26 11:12:16;;;;;;;2.75;1.70;;;23.70;85.70;;;;;;927387;150;27484;-79
2022/10/26 11:14:42;;;;;;;2.67;1.70;;;23.80;84.90;;;;;;926149;152;27329;-78
2022/10/26 11:17:17;;;;;;;3.40;1.60;;;23.80;84.00;;;;;;927330;150;27323;-78
2022/10/26 11:19:44;;;;;;;2.40;1.62;;;23.90;83.60;;;;;;920853;155;27435;-78
2022/10/26 11:22:11;;;;;;;4.28;2.00;;;23.90;84.20;;;;;;937867;151;27543;-77
2022/10/26 11:24:43;;;;;;;2.83;1.92;;;24.00;84.30;;;;;;939380;148;27297;-78
2022/10/26 11:27:25;;;;;;;2.00;1.75;;;24.10;83.40;;;;;;936503;148;27361;-79
2022/10/26 11:30:06;;;;;;;3.67;1.75;;;24.20;82.80;;;;;;931852;151;27343;-79
2022/10/26 11:32:39;;;;;;;4.25;2.10;;;24.20;82.00;;;;;;939519;148;27774;-78
2022/10/26 11:35:05;;;;;;;1.90;1.65;;;24.20;81.10;;;;;;937858;148;27270;-78
2022/10/26 11:37:44;;;;;;;1.80;1.60;;;24.20;81.00;;;;;;935874;148;27343;-78
2022/10/26 11:40:28;;;;;;;2.08;1.57;;;24.20;80.40;;;;;;937753;151;27395;-78
2022/10/26 11:43:13;;;;;;;3.45;1.47;;;24.10;80.00;;;;;;946435;147;27333;-77
2022/10/26 11:45:43;;;;;;;1.90;1.50;;;24.10;79.60;;;;;;947830;147;27374;-78
2022/10/26 11:48:24;;;;;;;3.00;1.60;;;24.00;79.00;;;;;;944853;147;27369;-78
2022/10/26 11:50:51;;;;;;;4.10;1.70;;;23.90;79.00;;;;;;948150;147;27419;-78
2022/10/26 11:53:17;;;;;;;4.60;2.17;;;23.90;79.30;;;;;;933623;149;27374;-78
2022/10/26 11:55:49;;;;;;;3.35;1.70;;;23.80;79.40;;;;;;927685;150;27351;-78
2022/10/26 11:58:16;;;;;;;2.15;1.47;;;23.70;78.90;;;;;;946867;147;27367;-78
2022/10/26 12:00:58;;;;;;;3.10;2.40;;;23.70;80.10;;;;;;947415;147;27443;-78
2022/10/26 12:03:25;;;;;;;2.67;1.55;;;23.70;80.30;;;;;;939387;147;27324;-78
2022/10/26 12:05:51;;;;;;;1.67;1.57;;;23.70;80.30;;;;;;946532;147;27423;-78
2022/10/26 12:08:29;;;;;;;5.90;1.72;;;23.70;79.90;;;;;;946882;147;27434;-78
2022/10/26 12:11:04;;;;;;;3.20;1.55;;;23.80;79.90;;;;;;946237;147;27792;-78
2022/10/26 12:13:34;;;;;;;2.75;1.77;;;23.80;79.40;;;;;;947486;147;27295;-78
2022/10/26 12:16:20;;;;;;;2.77;1.57;;;23.80;79.60;;;;;;947468;147;27761;-79
2022/10/26 12:18:47;;;;;;;3.25;1.85;;;23.80;79.30;;;;;;947271;147;27998;-79
2022/10/26 12:21:14;;;;;;;2.50;1.75;;;23.90;78.90;;;;;;947764;147;27366;-78
2022/10/26 12:23:53;;;;;;;2.72;1.57;;;23.90;78.90;;;;;;946886;147;27443;-78
2022/10/26 12:26:22;;;;;;;2.40;1.70;;;23.90;78.40;;;;;;946249;147;27768;-78
2022/10/26 12:29:01;;;;;;;2.47;1.55;;;23.90;78.40;;;;;;946993;147;27399;-78
2022/10/26 12:31:37;;;;;;;4.75;1.72;;;23.90;78.40;;;;;;946393;147;27356;-78
2022/10/26 12:34:21;;;;;;;2.02;1.65;;;23.80;78.40;;;;;;947084;147;27387;-78
2022/10/26 12:36:57;;;;;;;3.15;1.80;;;23.80;78.50;;;;;;949404;147;27313;-78
2022/10/26 12:39:35;;;;;;;3.27;2.00;;;23.80;78.70;;;;;;948286;147;27410;-78
2022/10/26 12:42:07;;;;;;;3.10;1.80;;;23.80;78.50;;;;;;948533;146;27472;-78
2022/10/26 12:44:34;;;;;;;2.02;1.70;;;23.80;78.50;;;;;;949582;146;27444;-78
2022/10/26 12:47:01;;;;;;;4.03;2.10;;;23.80;78.50;;;;;;950276;146;27854;-78
2022/10/26 12:50:01;;;;;;;2.62;1.77;;;23.80;78.50;;;;;;948635;146;27313;-78
2022/10/26 12:52:49;;;;;;;2.02;1.40;;;23.80;78.30;;;;;;950113;146;27399;-78
2022/10/26 12:55:37;;;;;;;5.00;2.40;;;23.80;78.80;;;;;;952735;146;27293;-78
2022/10/26 12:58:34;;;;;;;2.55;1.70;;;23.80;78.90;;;;;;939313;150;27414;-78
2022/10/26 13:01:00;;;;;;;2.42;1.70;;;23.80;79.20;;;;;;936042;149;27446;-78